SHT14P EGLL-EGJJ
Flight info
| Callsign | SHT14P |
|---|---|
| Flight time | 0h 40m |
| Altitude | 21000 |
| Route | GASGU2J GASGU N866 SAM/N0381F200 N63 LELNA LELNA1K |
| Aircraft | A320/M-SDE3FGIJ1KRWXY/SB1 |
Departure
| Time | 2026-05-06 23:53 |
|---|---|
| Airport | London Heathrow Airport (EGLL) |
Arrival
| Time | 2026-05-07 00:34 |
|---|---|
| Airport | Jersey Airport (EGJJ) |
| Time | Latitude | Longitude | Altitude | Speed | Heading |
|---|---|---|---|---|---|
| 2026-05-06 23:33 | 51.47417 | -0.48953 | 90 ft | 0 kts | 180° |
| 2026-05-06 23:43 | 51.47431 | -0.48953 | 90 ft | 4 kts | 180° |
| 2026-05-06 23:43 | 51.47451 | -0.48954 | 89 ft | 4 kts | 197° |
| 2026-05-06 23:43 | 51.47465 | -0.48932 | 90 ft | 4 kts | 222° |
| 2026-05-06 23:44 | 51.47482 | -0.48911 | 88 ft | 4 kts | 196° |
| 2026-05-06 23:44 | 51.47497 | -0.48917 | 87 ft | 4 kts | 135° |
| 2026-05-06 23:44 | 51.47507 | -0.48933 | 91 ft | 0 kts | 135° |
| 2026-05-06 23:48 | 51.47499 | -0.48920 | 87 ft | 3 kts | 133° |
| 2026-05-06 23:49 | 51.47488 | -0.48882 | 89 ft | 5 kts | 107° |
| 2026-05-06 23:49 | 51.47485 | -0.48814 | 88 ft | 7 kts | 90° |
| 2026-05-06 23:49 | 51.47485 | -0.48719 | 88 ft | 10 kts | 90° |
| 2026-05-06 23:49 | 51.47486 | -0.48596 | 87 ft | 12 kts | 90° |
| 2026-05-06 23:50 | 51.47463 | -0.48487 | 89 ft | 11 kts | 151° |
| 2026-05-06 23:50 | 51.47310 | -0.48478 | 86 ft | 15 kts | 180° |
| 2026-05-06 23:50 | 51.47195 | -0.48478 | 86 ft | 17 kts | 180° |
| 2026-05-06 23:51 | 51.47072 | -0.48477 | 86 ft | 16 kts | 180° |
| 2026-05-06 23:51 | 51.46950 | -0.48477 | 86 ft | 19 kts | 179° |
| 2026-05-06 23:51 | 51.46789 | -0.48470 | 86 ft | 16 kts | 179° |
| 2026-05-06 23:51 | 51.46720 | -0.48470 | 86 ft | 14 kts | 180° |
| 2026-05-06 23:52 | 51.46621 | -0.48470 | 86 ft | 15 kts | 180° |
| 2026-05-06 23:52 | 51.46511 | -0.48468 | 86 ft | 11 kts | 170° |
| 2026-05-06 23:52 | 51.46480 | -0.48368 | 87 ft | 12 kts | 90° |
| 2026-05-06 23:52 | 51.46479 | -0.48114 | 88 ft | 44 kts | 90° |
| 2026-05-06 23:53 | 51.46483 | -0.47254 | 87 ft | 107 kts | 90° |
| 2026-05-06 23:53 | 51.46487 | -0.45795 | 89 ft | 153 kts | 89° |
| 2026-05-06 23:53 | 51.46481 | -0.43999 | 468 ft | 163 kts | 89° |
| 2026-05-06 23:53 | 51.46476 | -0.42212 | 1129 ft | 163 kts | 95° |
| 2026-05-06 23:54 | 51.46041 | -0.40494 | 1575 ft | 178 kts | 123° |
| 2026-05-06 23:54 | 51.45293 | -0.38752 | 1854 ft | 200 kts | 124° |
| 2026-05-06 23:54 | 51.44437 | -0.36813 | 2144 ft | 226 kts | 125° |
| 2026-05-06 23:54 | 51.43442 | -0.34749 | 2563 ft | 249 kts | 136° |
| 2026-05-06 23:55 | 51.41933 | -0.33227 | 3302 ft | 259 kts | 161° |
| 2026-05-06 23:55 | 51.40168 | -0.32799 | 4172 ft | 263 kts | 185° |
| 2026-05-06 23:55 | 51.38411 | -0.33562 | 5094 ft | 264 kts | 209° |
| 2026-05-06 23:55 | 51.36952 | -0.35348 | 6008 ft | 266 kts | 223° |
| 2026-05-06 23:56 | 51.35581 | -0.37349 | 6898 ft | 269 kts | 223° |
| 2026-05-06 23:56 | 51.34186 | -0.39387 | 7702 ft | 273 kts | 223° |
| 2026-05-06 23:56 | 51.32767 | -0.41453 | 8494 ft | 278 kts | 223° |
| 2026-05-06 23:56 | 51.31355 | -0.43612 | 9273 ft | 283 kts | 231° |
| 2026-05-06 23:57 | 51.30285 | -0.46262 | 10032 ft | 286 kts | 248° |
| 2026-05-06 23:57 | 51.29654 | -0.49319 | 10519 ft | 299 kts | 255° |
| 2026-05-06 23:57 | 51.29062 | -0.52648 | 10715 ft | 323 kts | 255° |
| 2026-05-06 23:57 | 51.28430 | -0.56181 | 11088 ft | 337 kts | 255° |
| 2026-05-06 23:58 | 51.27765 | -0.59801 | 11725 ft | 341 kts | 254° |
| 2026-05-06 23:58 | 51.27067 | -0.63443 | 12397 ft | 345 kts | 253° |
| 2026-05-06 23:58 | 51.26348 | -0.67120 | 13075 ft | 348 kts | 253° |
| 2026-05-06 23:58 | 51.25626 | -0.70788 | 13749 ft | 352 kts | 253° |
| 2026-05-06 23:59 | 51.24898 | -0.74483 | 14359 ft | 355 kts | 253° |
| 2026-05-06 23:59 | 51.24155 | -0.78259 | 14963 ft | 357 kts | 253° |
| 2026-05-06 23:59 | 51.23406 | -0.82059 | 15558 ft | 360 kts | 253° |
| 2026-05-06 23:59 | 51.22657 | -0.85866 | 16142 ft | 363 kts | 253° |
| 2026-05-07 00:00 | 51.21895 | -0.89733 | 16729 ft | 365 kts | 253° |
| 2026-05-07 00:00 | 51.21024 | -0.93555 | 17311 ft | 369 kts | 245° |
| 2026-05-07 00:00 | 51.19718 | -0.97089 | 17891 ft | 373 kts | 234° |
| 2026-05-07 00:00 | 51.17980 | -1.00188 | 18469 ft | 377 kts | 225° |
| 2026-05-07 00:01 | 51.16084 | -1.03086 | 18993 ft | 379 kts | 225° |
| 2026-05-07 00:01 | 51.14174 | -1.06006 | 19524 ft | 382 kts | 225° |
| 2026-05-07 00:01 | 51.12256 | -1.08944 | 20058 ft | 384 kts | 225° |
| 2026-05-07 00:01 | 51.10324 | -1.11911 | 20577 ft | 387 kts | 225° |
| 2026-05-07 00:02 | 51.08390 | -1.14887 | 20964 ft | 389 kts | 225° |
| 2026-05-07 00:02 | 51.06428 | -1.17895 | 21050 ft | 395 kts | 225° |
| 2026-05-07 00:02 | 51.04435 | -1.20942 | 21057 ft | 400 kts | 225° |
| 2026-05-07 00:02 | 51.02424 | -1.24008 | 21057 ft | 401 kts | 225° |
| 2026-05-07 00:03 | 51.00408 | -1.27074 | 21057 ft | 401 kts | 225° |
| 2026-05-07 00:03 | 50.98416 | -1.30099 | 21057 ft | 401 kts | 225° |
| 2026-05-07 00:03 | 50.96368 | -1.33109 | 21055 ft | 402 kts | 220° |
| 2026-05-07 00:03 | 50.94068 | -1.35634 | 21057 ft | 403 kts | 211° |
| 2026-05-07 00:04 | 50.91572 | -1.37668 | 21057 ft | 404 kts | 208° |
| 2026-05-07 00:04 | 50.89062 | -1.39664 | 21056 ft | 404 kts | 208° |
| 2026-05-07 00:04 | 50.86553 | -1.41662 | 21052 ft | 404 kts | 208° |
| 2026-05-07 00:04 | 50.84045 | -1.43664 | 21053 ft | 404 kts | 208° |
| 2026-05-07 00:05 | 50.81543 | -1.45662 | 21055 ft | 404 kts | 208° |
| 2026-05-07 00:05 | 50.79027 | -1.47667 | 21055 ft | 404 kts | 208° |
| 2026-05-07 00:05 | 50.76522 | -1.49659 | 21057 ft | 404 kts | 208° |
| 2026-05-07 00:05 | 50.74010 | -1.51658 | 21058 ft | 404 kts | 208° |
| 2026-05-07 00:06 | 50.71499 | -1.53652 | 21059 ft | 404 kts | 207° |
| 2026-05-07 00:06 | 50.68987 | -1.55638 | 21061 ft | 404 kts | 207° |
| 2026-05-07 00:06 | 50.66473 | -1.57625 | 21067 ft | 404 kts | 207° |
| 2026-05-07 00:06 | 50.63957 | -1.59609 | 21069 ft | 404 kts | 207° |
| 2026-05-07 00:07 | 50.61440 | -1.61588 | 21065 ft | 404 kts | 207° |
| 2026-05-07 00:07 | 50.58928 | -1.63562 | 21049 ft | 403 kts | 208° |
| 2026-05-07 00:07 | 50.56448 | -1.65510 | 21060 ft | 403 kts | 208° |
| 2026-05-07 00:07 | 50.53906 | -1.67509 | 21065 ft | 403 kts | 208° |
| 2026-05-07 00:08 | 50.51429 | -1.69454 | 21060 ft | 403 kts | 208° |
| 2026-05-07 00:08 | 50.48916 | -1.71427 | 21050 ft | 403 kts | 208° |
| 2026-05-07 00:08 | 50.46409 | -1.73394 | 21054 ft | 403 kts | 207° |
| 2026-05-07 00:08 | 50.43902 | -1.75353 | 21054 ft | 403 kts | 207° |
| 2026-05-07 00:09 | 50.41394 | -1.77309 | 21060 ft | 403 kts | 208° |
| 2026-05-07 00:09 | 50.38883 | -1.79265 | 21049 ft | 403 kts | 207° |
| 2026-05-07 00:09 | 50.36374 | -1.81221 | 21042 ft | 403 kts | 207° |
| 2026-05-07 00:09 | 50.33864 | -1.83177 | 21051 ft | 403 kts | 207° |
| 2026-05-07 00:10 | 50.31354 | -1.85128 | 21051 ft | 403 kts | 207° |
| 2026-05-07 00:10 | 50.28845 | -1.87076 | 21051 ft | 403 kts | 207° |
| 2026-05-07 00:10 | 50.26339 | -1.89019 | 21052 ft | 403 kts | 207° |
| 2026-05-07 00:10 | 50.23824 | -1.90964 | 21041 ft | 402 kts | 207° |
| 2026-05-07 00:11 | 50.21316 | -1.92904 | 21045 ft | 402 kts | 207° |
| 2026-05-07 00:11 | 50.18807 | -1.94840 | 21041 ft | 402 kts | 207° |
| 2026-05-07 00:11 | 50.16299 | -1.96775 | 21041 ft | 402 kts | 207° |
| 2026-05-07 00:11 | 50.13790 | -1.98709 | 21038 ft | 402 kts | 207° |
| 2026-05-07 00:12 | 50.11291 | -2.00635 | 21040 ft | 402 kts | 207° |
| 2026-05-07 00:12 | 50.08777 | -2.02572 | 21038 ft | 402 kts | 207° |
| 2026-05-07 00:12 | 50.06270 | -2.04502 | 21042 ft | 402 kts | 207° |
| 2026-05-07 00:12 | 50.03763 | -2.06429 | 21034 ft | 402 kts | 207° |
| 2026-05-07 00:13 | 50.01252 | -2.08355 | 21038 ft | 402 kts | 207° |
| 2026-05-07 00:13 | 49.98713 | -2.10196 | 21040 ft | 403 kts | 202° |
| 2026-05-07 00:13 | 49.96058 | -2.11428 | 21026 ft | 404 kts | 193° |
| 2026-05-07 00:13 | 49.93314 | -2.12350 | 21024 ft | 404 kts | 193° |
| 2026-05-07 00:14 | 49.90567 | -2.13279 | 21030 ft | 404 kts | 193° |
| 2026-05-07 00:14 | 49.87822 | -2.14214 | 21024 ft | 404 kts | 194° |
| 2026-05-07 00:14 | 49.85092 | -2.15147 | 21029 ft | 397 kts | 194° |
| 2026-05-07 00:14 | 49.82435 | -2.16051 | 20973 ft | 383 kts | 194° |
| 2026-05-07 00:15 | 49.79854 | -2.16926 | 20615 ft | 376 kts | 194° |
| 2026-05-07 00:15 | 49.77315 | -2.17793 | 20160 ft | 372 kts | 194° |
| 2026-05-07 00:15 | 49.74793 | -2.18651 | 19678 ft | 369 kts | 194° |
| 2026-05-07 00:15 | 49.72302 | -2.19498 | 19200 ft | 367 kts | 194° |
| 2026-05-07 00:16 | 49.69816 | -2.20374 | 18720 ft | 364 kts | 195° |
| 2026-05-07 00:16 | 49.67377 | -2.21375 | 18239 ft | 361 kts | 197° |
| 2026-05-07 00:16 | 49.64990 | -2.22536 | 17695 ft | 359 kts | 200° |
| 2026-05-07 00:16 | 49.62640 | -2.23803 | 17170 ft | 356 kts | 200° |
| 2026-05-07 00:17 | 49.60311 | -2.25072 | 16666 ft | 354 kts | 200° |
| 2026-05-07 00:17 | 49.58000 | -2.26336 | 16169 ft | 351 kts | 200° |
| 2026-05-07 00:17 | 49.55706 | -2.27596 | 15690 ft | 349 kts | 200° |
| 2026-05-07 00:17 | 49.53432 | -2.28851 | 15196 ft | 346 kts | 200° |
| 2026-05-07 00:18 | 49.51172 | -2.30103 | 14716 ft | 344 kts | 200° |
| 2026-05-07 00:18 | 49.48958 | -2.31448 | 14249 ft | 341 kts | 207° |
| 2026-05-07 00:18 | 49.46885 | -2.33185 | 13788 ft | 338 kts | 210° |
| 2026-05-07 00:18 | 49.44847 | -2.34971 | 13297 ft | 336 kts | 211° |
| 2026-05-07 00:19 | 49.42822 | -2.36750 | 12805 ft | 333 kts | 211° |
| 2026-05-07 00:19 | 49.40841 | -2.38487 | 12349 ft | 331 kts | 211° |
| 2026-05-07 00:19 | 49.38881 | -2.40201 | 12071 ft | 313 kts | 211° |
| 2026-05-07 00:19 | 49.37045 | -2.41800 | 11819 ft | 296 kts | 211° |
| 2026-05-07 00:20 | 49.35282 | -2.43332 | 11309 ft | 290 kts | 211° |
| 2026-05-07 00:20 | 49.33532 | -2.44846 | 10746 ft | 286 kts | 211° |
| 2026-05-07 00:20 | 49.31807 | -2.46336 | 10182 ft | 284 kts | 211° |
| 2026-05-07 00:20 | 49.30095 | -2.47811 | 9594 ft | 281 kts | 211° |
| 2026-05-07 00:21 | 49.28399 | -2.49270 | 8989 ft | 278 kts | 211° |
| 2026-05-07 00:21 | 49.26717 | -2.50718 | 8390 ft | 275 kts | 211° |
| 2026-05-07 00:21 | 49.25003 | -2.51983 | 7815 ft | 274 kts | 194° |
| 2026-05-07 00:21 | 49.23172 | -2.51997 | 7653 ft | 258 kts | 167° |
| 2026-05-07 00:22 | 49.21542 | -2.51042 | 7403 ft | 247 kts | 148° |
| 2026-05-07 00:22 | 49.20241 | -2.49357 | 6963 ft | 245 kts | 131° |
| 2026-05-07 00:22 | 49.19341 | -2.47198 | 6740 ft | 235 kts | 114° |
| 2026-05-07 00:22 | 49.18893 | -2.44888 | 6610 ft | 220 kts | 98° |
| 2026-05-07 00:23 | 49.18843 | -2.42653 | 6455 ft | 203 kts | 84° |
| 2026-05-07 00:23 | 49.19016 | -2.40564 | 5938 ft | 201 kts | 82° |
| 2026-05-07 00:23 | 49.19200 | -2.38440 | 5261 ft | 202 kts | 83° |
| 2026-05-07 00:23 | 49.19382 | -2.36313 | 4590 ft | 201 kts | 83° |
| 2026-05-07 00:24 | 49.19561 | -2.34209 | 3909 ft | 199 kts | 83° |
| 2026-05-07 00:24 | 49.19738 | -2.32130 | 3244 ft | 196 kts | 83° |
| 2026-05-07 00:24 | 49.19911 | -2.30080 | 2570 ft | 193 kts | 84° |
| 2026-05-07 00:24 | 49.20081 | -2.28063 | 2067 ft | 184 kts | 84° |
| 2026-05-07 00:25 | 49.20236 | -2.26236 | 2001 ft | 167 kts | 83° |
| 2026-05-07 00:25 | 49.20387 | -2.24419 | 2026 ft | 184 kts | 83° |
| 2026-05-07 00:25 | 49.20558 | -2.22364 | 1998 ft | 204 kts | 83° |
| 2026-05-07 00:25 | 49.20737 | -2.20198 | 2186 ft | 206 kts | 84° |
| 2026-05-07 00:26 | 49.20658 | -2.18009 | 2429 ft | 210 kts | 110° |
| 2026-05-07 00:26 | 49.19782 | -2.16243 | 2679 ft | 213 kts | 146° |
| 2026-05-07 00:26 | 49.18376 | -2.15562 | 2917 ft | 217 kts | 180° |
| 2026-05-07 00:26 | 49.16940 | -2.16207 | 2998 ft | 220 kts | 213° |
| 2026-05-07 00:27 | 49.15860 | -2.17874 | 3007 ft | 222 kts | 235° |
| 2026-05-07 00:27 | 49.15065 | -2.19898 | 3010 ft | 223 kts | 239° |
| 2026-05-07 00:27 | 49.14334 | -2.21987 | 3013 ft | 223 kts | 241° |
| 2026-05-07 00:27 | 49.13613 | -2.24078 | 3011 ft | 222 kts | 241° |
| 2026-05-07 00:28 | 49.12891 | -2.26156 | 3010 ft | 222 kts | 240° |
| 2026-05-07 00:28 | 49.12335 | -2.28348 | 3013 ft | 222 kts | 256° |
| 2026-05-07 00:28 | 49.12061 | -2.30679 | 3015 ft | 223 kts | 260° |
| 2026-05-07 00:28 | 49.11834 | -2.32986 | 3006 ft | 222 kts | 261° |
| 2026-05-07 00:29 | 49.11611 | -2.35335 | 3013 ft | 224 kts | 260° |
| 2026-05-07 00:29 | 49.11402 | -2.37649 | 2982 ft | 215 kts | 265° |
| 2026-05-07 00:30 | 49.13990 | -2.41445 | 2564 ft | 185 kts | 19° |
| 2026-05-07 00:30 | 49.15039 | -2.40497 | 2438 ft | 170 kts | 40° |
| 2026-05-07 00:30 | 49.15953 | -2.39407 | 2250 ft | 165 kts | 40° |
| 2026-05-07 00:30 | 49.16850 | -2.38333 | 2061 ft | 163 kts | 41° |
| 2026-05-07 00:31 | 49.17744 | -2.37257 | 2005 ft | 163 kts | 40° |
| 2026-05-07 00:31 | 49.18632 | -2.36175 | 2007 ft | 163 kts | 41° |
| 2026-05-07 00:31 | 49.19355 | -2.34867 | 2000 ft | 161 kts | 65° |
| 2026-05-07 00:31 | 49.19647 | -2.33233 | 1910 ft | 159 kts | 84° |
| 2026-05-07 00:32 | 49.19787 | -2.31550 | 1738 ft | 159 kts | 84° |
| 2026-05-07 00:32 | 49.19924 | -2.29927 | 1521 ft | 149 kts | 84° |
| 2026-05-07 00:32 | 49.20053 | -2.28402 | 1330 ft | 142 kts | 83° |
| 2026-05-07 00:32 | 49.20178 | -2.26914 | 1132 ft | 140 kts | 84° |
| 2026-05-07 00:33 | 49.20301 | -2.25451 | 949 ft | 139 kts | 83° |
| 2026-05-07 00:33 | 49.20424 | -2.23988 | 756 ft | 138 kts | 83° |
| 2026-05-07 00:33 | 49.20545 | -2.22532 | 575 ft | 138 kts | 83° |
| 2026-05-07 00:33 | 49.20666 | -2.21083 | 373 ft | 137 kts | 82° |
| 2026-05-07 00:34 | 49.20783 | -2.19692 | 285 ft | 119 kts | 83° |
| 2026-05-07 00:34 | 49.20811 | -2.19131 | 285 ft | 29 kts | 100° |
| 2026-05-07 00:34 | 49.20756 | -2.18891 | 286 ft | 15 kts | 112° |
| 2026-05-07 00:34 | 49.20711 | -2.18858 | 284 ft | 6 kts | 215° |
| 2026-05-07 00:35 | 49.20699 | -2.18931 | 284 ft | 8 kts | 261° |
| 2026-05-07 00:35 | 49.20690 | -2.19032 | 287 ft | 11 kts | 263° |
| 2026-05-07 00:35 | 49.20681 | -2.19162 | 284 ft | 14 kts | 267° |
| 2026-05-07 00:35 | 49.20697 | -2.19319 | 284 ft | 17 kts | 284° |
| 2026-05-07 00:36 | 49.20703 | -2.19505 | 284 ft | 18 kts | 256° |
| 2026-05-07 00:36 | 49.20663 | -2.19647 | 284 ft | 10 kts | 225° |
| 2026-05-07 00:36 | 49.20603 | -2.19662 | 284 ft | 9 kts | 161° |
| 2026-05-07 00:36 | 49.20569 | -2.19641 | 284 ft | 2 kts | 158° |
| 2026-05-07 00:37 | 49.20563 | -2.19638 | 284 ft | 0 kts | 159° |